sensor_id;sensor_type;location;lat;lon;timestamp;P1;durP1;ratioP1;P2;durP2;ratioP2
68484;SDS011;55472;50.060;21.960;2024-02-16T00:00:11;115.53;;;38.95;;
68484;SDS011;55472;50.060;21.960;2024-02-16T00:02:58;98.43;;;35.35;;
68484;SDS011;55472;50.060;21.960;2024-02-16T00:05:25;104.47;;;35.20;;
68484;SDS011;55472;50.060;21.960;2024-02-16T00:07:51;83.93;;;30.75;;
68484;SDS011;55472;50.060;21.960;2024-02-16T00:10:18;103.05;;;36.28;;
68484;SDS011;55472;50.060;21.960;2024-02-16T00:12:45;100.38;;;37.80;;
68484;SDS011;55472;50.060;21.960;2024-02-16T00:15:12;94.68;;;31.17;;
68484;SDS011;55472;50.060;21.960;2024-02-16T00:17:38;75.63;;;27.07;;
68484;SDS011;55472;50.060;21.960;2024-02-16T00:20:05;69.40;;;25.85;;
68484;SDS011;55472;50.060;21.960;2024-02-16T00:22:33;70.70;;;24.92;;
68484;SDS011;55472;50.060;21.960;2024-02-16T00:24:59;102.30;;;32.97;;
68484;SDS011;55472;50.060;21.960;2024-02-16T00:27:27;102.40;;;34.35;;
68484;SDS011;55472;50.060;21.960;2024-02-16T00:29:53;88.73;;;33.37;;
68484;SDS011;55472;50.060;21.960;2024-02-16T00:32:20;97.00;;;31.73;;
68484;SDS011;55472;50.060;21.960;2024-02-16T00:34:49;81.95;;;30.20;;
68484;SDS011;55472;50.060;21.960;2024-02-16T00:37:19;69.50;;;26.25;;
68484;SDS011;55472;50.060;21.960;2024-02-16T00:39:46;62.17;;;22.73;;
68484;SDS011;55472;50.060;21.960;2024-02-16T00:42:13;70.27;;;24.40;;
68484;SDS011;55472;50.060;21.960;2024-02-16T00:44:39;75.88;;;24.65;;
68484;SDS011;55472;50.060;21.960;2024-02-16T00:47:06;62.60;;;22.67;;
68484;SDS011;55472;50.060;21.960;2024-02-16T00:49:32;71.68;;;24.65;;
68484;SDS011;55472;50.060;21.960;2024-02-16T00:51:59;60.65;;;22.75;;
68484;SDS011;55472;50.060;21.960;2024-02-16T00:54:27;71.33;;;25.70;;
68484;SDS011;55472;50.060;21.960;2024-02-16T00:56:53;65.13;;;24.13;;
68484;SDS011;55472;50.060;21.960;2024-02-16T00:59:20;60.97;;;22.25;;
68484;SDS011;55472;50.060;21.960;2024-02-16T01:01:47;58.13;;;21.27;;
68484;SDS011;55472;50.060;21.960;2024-02-16T01:04:13;64.75;;;22.83;;
68484;SDS011;55472;50.060;21.960;2024-02-16T01:06:40;51.63;;;19.70;;
68484;SDS011;55472;50.060;21.960;2024-02-16T01:09:07;55.78;;;21.02;;
68484;SDS011;55472;50.060;21.960;2024-02-16T01:11:34;60.78;;;22.27;;
68484;SDS011;55472;50.060;21.960;2024-02-16T01:14:00;53.00;;;20.15;;
68484;SDS011;55472;50.060;21.960;2024-02-16T01:16:26;57.55;;;21.00;;
68484;SDS011;55472;50.060;21.960;2024-02-16T01:18:53;57.27;;;20.93;;
68484;SDS011;55472;50.060;21.960;2024-02-16T01:21:22;53.70;;;18.95;;
68484;SDS011;55472;50.060;21.960;2024-02-16T01:23:48;58.28;;;21.55;;
68484;SDS011;55472;50.060;21.960;2024-02-16T01:26:15;51.78;;;20.23;;
68484;SDS011;55472;50.060;21.960;2024-02-16T01:28:41;48.83;;;19.30;;
68484;SDS011;55472;50.060;21.960;2024-02-16T01:31:09;55.17;;;19.23;;
68484;SDS011;55472;50.060;21.960;2024-02-16T01:33:36;58.03;;;22.10;;
68484;SDS011;55472;50.060;21.960;2024-02-16T01:36:04;47.55;;;18.30;;
68484;SDS011;55472;50.060;21.960;2024-02-16T01:38:30;55.15;;;20.83;;
68484;SDS011;55472;50.060;21.960;2024-02-16T01:40:57;46.35;;;18.65;;
68484;SDS011;55472;50.060;21.960;2024-02-16T01:43:23;42.97;;;15.77;;
68484;SDS011;55472;50.060;21.960;2024-02-16T01:45:50;57.20;;;20.55;;
68484;SDS011;55472;50.060;21.960;2024-02-16T01:48:16;56.33;;;20.27;;
68484;SDS011;55472;50.060;21.960;2024-02-16T01:50:43;52.10;;;17.63;;
68484;SDS011;55472;50.060;21.960;2024-02-16T01:53:10;47.97;;;18.77;;
68484;SDS011;55472;50.060;21.960;2024-02-16T01:55:38;44.50;;;17.13;;
68484;SDS011;55472;50.060;21.960;2024-02-16T01:58:04;45.70;;;18.10;;
68484;SDS011;55472;50.060;21.960;2024-02-16T02:00:31;62.03;;;21.15;;
68484;SDS011;55472;50.060;21.960;2024-02-16T02:02:57;49.50;;;18.70;;
68484;SDS011;55472;50.060;21.960;2024-02-16T02:05:24;43.60;;;15.88;;
68484;SDS011;55472;50.060;21.960;2024-02-16T02:07:50;43.40;;;16.03;;
68484;SDS011;55472;50.060;21.960;2024-02-16T02:10:18;46.97;;;16.85;;
68484;SDS011;55472;50.060;21.960;2024-02-16T02:12:44;44.65;;;17.83;;
68484;SDS011;55472;50.060;21.960;2024-02-16T02:15:11;47.10;;;16.05;;
68484;SDS011;55472;50.060;21.960;2024-02-16T02:17:38;44.80;;;16.25;;
68484;SDS011;55472;50.060;21.960;2024-02-16T02:20:05;46.97;;;18.27;;
68484;SDS011;55472;50.060;21.960;2024-02-16T02:22:38;47.58;;;17.55;;
68484;SDS011;55472;50.060;21.960;2024-02-16T02:25:05;48.40;;;16.48;;
68484;SDS011;55472;50.060;21.960;2024-02-16T02:27:32;42.92;;;15.07;;
68484;SDS011;55472;50.060;21.960;2024-02-16T02:29:58;36.85;;;14.55;;
68484;SDS011;55472;50.060;21.960;2024-02-16T02:32:25;37.17;;;15.47;;
68484;SDS011;55472;50.060;21.960;2024-02-16T02:34:51;41.55;;;15.50;;
68484;SDS011;55472;50.060;21.960;2024-02-16T02:37:18;42.65;;;16.30;;
68484;SDS011;55472;50.060;21.960;2024-02-16T02:39:44;43.47;;;17.45;;
68484;SDS011;55472;50.060;21.960;2024-02-16T02:42:11;48.97;;;16.90;;
68484;SDS011;55472;50.060;21.960;2024-02-16T02:44:38;39.60;;;15.83;;
68484;SDS011;55472;50.060;21.960;2024-02-16T02:47:04;41.33;;;15.57;;
68484;SDS011;55472;50.060;21.960;2024-02-16T02:49:31;41.33;;;16.00;;
68484;SDS011;55472;50.060;21.960;2024-02-16T02:52:00;41.75;;;16.60;;
68484;SDS011;55472;50.060;21.960;2024-02-16T02:54:27;52.70;;;18.33;;
68484;SDS011;55472;50.060;21.960;2024-02-16T02:56:53;49.27;;;19.07;;
68484;SDS011;55472;50.060;21.960;2024-02-16T02:59:20;52.15;;;19.23;;
68484;SDS011;55472;50.060;21.960;2024-02-16T03:01:46;43.70;;;17.42;;
68484;SDS011;55472;50.060;21.960;2024-02-16T03:04:13;68.60;;;23.33;;
68484;SDS011;55472;50.060;21.960;2024-02-16T03:06:39;59.90;;;21.42;;
68484;SDS011;55472;50.060;21.960;2024-02-16T03:09:07;64.27;;;23.43;;
68484;SDS011;55472;50.060;21.960;2024-02-16T03:11:33;52.70;;;20.15;;
68484;SDS011;55472;50.060;21.960;2024-02-16T03:14:00;61.65;;;23.25;;
68484;SDS011;55472;50.060;21.960;2024-02-16T03:16:26;72.32;;;25.92;;
68484;SDS011;55472;50.060;21.960;2024-02-16T03:18:53;71.80;;;26.08;;
68484;SDS011;55472;50.060;21.960;2024-02-16T03:21:20;63.87;;;23.37;;
68484;SDS011;55472;50.060;21.960;2024-02-16T03:23:46;61.80;;;20.95;;
68484;SDS011;55472;50.060;21.960;2024-02-16T03:26:16;60.53;;;23.83;;
68484;SDS011;55472;50.060;21.960;2024-02-16T03:28:47;60.90;;;23.05;;
68484;SDS011;55472;50.060;21.960;2024-02-16T03:31:21;66.10;;;24.67;;
68484;SDS011;55472;50.060;21.960;2024-02-16T03:33:48;57.07;;;21.03;;
68484;SDS011;55472;50.060;21.960;2024-02-16T03:36:17;68.65;;;22.55;;
68484;SDS011;55472;50.060;21.960;2024-02-16T03:38:44;63.85;;;21.27;;
68484;SDS011;55472;50.060;21.960;2024-02-16T03:41:12;60.13;;;20.88;;
68484;SDS011;55472;50.060;21.960;2024-02-16T03:43:40;54.25;;;21.02;;
68484;SDS011;55472;50.060;21.960;2024-02-16T03:46:08;59.70;;;20.97;;
68484;SDS011;55472;50.060;21.960;2024-02-16T03:48:34;57.60;;;20.98;;
68484;SDS011;55472;50.060;21.960;2024-02-16T03:51:01;59.83;;;23.05;;
68484;SDS011;55472;50.060;21.960;2024-02-16T03:53:28;54.33;;;21.85;;
68484;SDS011;55472;50.060;21.960;2024-02-16T03:55:55;66.53;;;22.10;;
68484;SDS011;55472;50.060;21.960;2024-02-16T03:58:22;68.80;;;25.77;;
68484;SDS011;55472;50.060;21.960;2024-02-16T04:00:49;65.65;;;24.08;;
68484;SDS011;55472;50.060;21.960;2024-02-16T04:03:16;64.22;;;24.25;;
68484;SDS011;55472;50.060;21.960;2024-02-16T04:05:43;58.15;;;21.52;;
68484;SDS011;55472;50.060;21.960;2024-02-16T04:08:09;51.67;;;20.92;;
68484;SDS011;55472;50.060;21.960;2024-02-16T04:10:36;61.10;;;22.67;;
68484;SDS011;55472;50.060;21.960;2024-02-16T04:13:03;56.95;;;22.58;;
68484;SDS011;55472;50.060;21.960;2024-02-16T04:15:29;63.60;;;21.48;;
68484;SDS011;55472;50.060;21.960;2024-02-16T04:17:56;56.67;;;20.52;;
68484;SDS011;55472;50.060;21.960;2024-02-16T04:20:22;50.03;;;18.48;;
68484;SDS011;55472;50.060;21.960;2024-02-16T04:22:49;56.00;;;20.20;;
68484;SDS011;55472;50.060;21.960;2024-02-16T04:25:15;58.55;;;21.70;;
68484;SDS011;55472;50.060;21.960;2024-02-16T04:27:42;59.88;;;21.88;;
68484;SDS011;55472;50.060;21.960;2024-02-16T04:30:08;65.10;;;23.00;;
68484;SDS011;55472;50.060;21.960;2024-02-16T04:32:35;66.18;;;26.98;;
68484;SDS011;55472;50.060;21.960;2024-02-16T04:35:02;70.30;;;24.87;;
68484;SDS011;55472;50.060;21.960;2024-02-16T04:37:29;65.80;;;25.25;;
68484;SDS011;55472;50.060;21.960;2024-02-16T04:39:56;66.32;;;25.63;;
68484;SDS011;55472;50.060;21.960;2024-02-16T04:42:22;65.20;;;24.35;;
68484;SDS011;55472;50.060;21.960;2024-02-16T04:44:48;68.05;;;24.02;;
68484;SDS011;55472;50.060;21.960;2024-02-16T04:47:15;69.33;;;24.33;;
68484;SDS011;55472;50.060;21.960;2024-02-16T04:49:43;60.83;;;22.63;;
68484;SDS011;55472;50.060;21.960;2024-02-16T04:52:09;62.92;;;23.95;;
68484;SDS011;55472;50.060;21.960;2024-02-16T04:54:36;61.15;;;23.52;;
68484;SDS011;55472;50.060;21.960;2024-02-16T04:57:05;62.00;;;23.55;;
68484;SDS011;55472;50.060;21.960;2024-02-16T04:59:32;64.53;;;23.80;;
68484;SDS011;55472;50.060;21.960;2024-02-16T05:01:59;53.63;;;22.27;;
68484;SDS011;55472;50.060;21.960;2024-02-16T05:04:25;59.70;;;21.73;;
68484;SDS011;55472;50.060;21.960;2024-02-16T05:06:52;64.65;;;22.38;;
68484;SDS011;55472;50.060;21.960;2024-02-16T05:09:22;64.75;;;22.90;;
68484;SDS011;55472;50.060;21.960;2024-02-16T05:11:52;53.40;;;20.40;;
68484;SDS011;55472;50.060;21.960;2024-02-16T05:14:18;60.22;;;22.05;;
68484;SDS011;55472;50.060;21.960;2024-02-16T05:16:45;69.25;;;24.25;;
68484;SDS011;55472;50.060;21.960;2024-02-16T05:19:11;62.53;;;23.33;;
68484;SDS011;55472;50.060;21.960;2024-02-16T05:21:38;65.78;;;23.73;;
68484;SDS011;55472;50.060;21.960;2024-02-16T05:24:05;61.37;;;21.67;;
68484;SDS011;55472;50.060;21.960;2024-02-16T05:26:31;71.95;;;22.83;;
68484;SDS011;55472;50.060;21.960;2024-02-16T05:28:58;60.92;;;21.35;;
68484;SDS011;55472;50.060;21.960;2024-02-16T05:31:24;56.85;;;20.63;;
68484;SDS011;55472;50.060;21.960;2024-02-16T05:33:51;55.10;;;21.25;;
68484;SDS011;55472;50.060;21.960;2024-02-16T05:36:21;61.97;;;22.40;;
68484;SDS011;55472;50.060;21.960;2024-02-16T05:38:52;58.05;;;21.73;;
68484;SDS011;55472;50.060;21.960;2024-02-16T05:41:21;55.15;;;21.10;;
68484;SDS011;55472;50.060;21.960;2024-02-16T05:43:48;57.92;;;22.10;;
68484;SDS011;55472;50.060;21.960;2024-02-16T05:46:15;56.05;;;21.10;;
68484;SDS011;55472;50.060;21.960;2024-02-16T05:48:42;61.90;;;21.63;;
68484;SDS011;55472;50.060;21.960;2024-02-16T05:51:09;59.13;;;21.20;;
68484;SDS011;55472;50.060;21.960;2024-02-16T05:53:38;56.03;;;22.83;;
68484;SDS011;55472;50.060;21.960;2024-02-16T05:56:06;61.58;;;22.27;;
68484;SDS011;55472;50.060;21.960;2024-02-16T05:58:35;62.03;;;21.70;;
68484;SDS011;55472;50.060;21.960;2024-02-16T06:01:02;58.77;;;22.23;;
68484;SDS011;55472;50.060;21.960;2024-02-16T06:03:28;56.55;;;22.40;;
68484;SDS011;55472;50.060;21.960;2024-02-16T06:05:59;65.88;;;22.60;;
68484;SDS011;55472;50.060;21.960;2024-02-16T06:08:34;73.25;;;25.02;;
68484;SDS011;55472;50.060;21.960;2024-02-16T06:11:00;67.15;;;24.70;;
68484;SDS011;55472;50.060;21.960;2024-02-16T06:13:27;58.47;;;23.60;;
68484;SDS011;55472;50.060;21.960;2024-02-16T06:15:55;62.53;;;24.50;;
68484;SDS011;55472;50.060;21.960;2024-02-16T06:18:22;63.80;;;24.92;;
68484;SDS011;55472;50.060;21.960;2024-02-16T06:20:48;76.35;;;26.17;;
68484;SDS011;55472;50.060;21.960;2024-02-16T06:23:15;67.90;;;25.77;;
68484;SDS011;55472;50.060;21.960;2024-02-16T06:25:42;72.83;;;27.27;;
68484;SDS011;55472;50.060;21.960;2024-02-16T06:28:09;79.65;;;27.90;;
68484;SDS011;55472;50.060;21.960;2024-02-16T06:30:35;85.00;;;30.45;;
68484;SDS011;55472;50.060;21.960;2024-02-16T06:33:02;75.80;;;27.73;;
68484;SDS011;55472;50.060;21.960;2024-02-16T06:35:29;88.57;;;31.52;;
68484;SDS011;55472;50.060;21.960;2024-02-16T06:37:55;69.23;;;27.90;;
68484;SDS011;55472;50.060;21.960;2024-02-16T06:40:22;77.70;;;28.98;;
68484;SDS011;55472;50.060;21.960;2024-02-16T06:42:51;76.15;;;28.48;;
68484;SDS011;55472;50.060;21.960;2024-02-16T06:45:18;82.00;;;29.55;;
68484;SDS011;55472;50.060;21.960;2024-02-16T06:47:45;83.20;;;30.05;;
68484;SDS011;55472;50.060;21.960;2024-02-16T06:50:12;84.47;;;29.97;;
68484;SDS011;55472;50.060;21.960;2024-02-16T06:52:38;78.40;;;30.13;;
68484;SDS011;55472;50.060;21.960;2024-02-16T06:55:05;77.88;;;29.77;;
68484;SDS011;55472;50.060;21.960;2024-02-16T06:57:31;77.72;;;29.30;;
68484;SDS011;55472;50.060;21.960;2024-02-16T06:59:58;77.65;;;27.45;;
68484;SDS011;55472;50.060;21.960;2024-02-16T07:02:25;78.37;;;30.67;;
68484;SDS011;55472;50.060;21.960;2024-02-16T07:04:51;95.45;;;35.95;;
68484;SDS011;55472;50.060;21.960;2024-02-16T07:07:18;91.78;;;36.33;;
68484;SDS011;55472;50.060;21.960;2024-02-16T07:09:44;100.55;;;40.35;;
68484;SDS011;55472;50.060;21.960;2024-02-16T07:12:11;90.97;;;34.47;;
68484;SDS011;55472;50.060;21.960;2024-02-16T07:14:38;85.03;;;34.57;;
68484;SDS011;55472;50.060;21.960;2024-02-16T07:17:05;82.50;;;30.65;;
68484;SDS011;55472;50.060;21.960;2024-02-16T07:19:35;87.65;;;33.22;;
68484;SDS011;55472;50.060;21.960;2024-02-16T07:22:02;77.05;;;30.83;;
68484;SDS011;55472;50.060;21.960;2024-02-16T07:24:32;75.40;;;29.17;;
68484;SDS011;55472;50.060;21.960;2024-02-16T07:26:59;76.77;;;29.27;;
68484;SDS011;55472;50.060;21.960;2024-02-16T07:29:27;68.70;;;29.35;;
68484;SDS011;55472;50.060;21.960;2024-02-16T07:31:53;79.20;;;27.25;;
68484;SDS011;55472;50.060;21.960;2024-02-16T07:34:21;68.30;;;26.00;;
68484;SDS011;55472;50.060;21.960;2024-02-16T07:36:48;73.18;;;28.45;;
68484;SDS011;55472;50.060;21.960;2024-02-16T07:39:15;67.33;;;27.87;;
68484;SDS011;55472;50.060;21.960;2024-02-16T07:41:41;61.63;;;24.45;;
68484;SDS011;55472;50.060;21.960;2024-02-16T07:44:08;59.30;;;24.23;;
68484;SDS011;55472;50.060;21.960;2024-02-16T07:46:39;59.20;;;24.55;;
68484;SDS011;55472;50.060;21.960;2024-02-16T07:49:06;55.55;;;22.75;;
68484;SDS011;55472;50.060;21.960;2024-02-16T07:51:32;60.30;;;24.77;;
68484;SDS011;55472;50.060;21.960;2024-02-16T07:53:59;56.53;;;24.58;;
68484;SDS011;55472;50.060;21.960;2024-02-16T07:56:26;58.38;;;23.95;;
68484;SDS011;55472;50.060;21.960;2024-02-16T07:58:52;58.83;;;24.20;;
68484;SDS011;55472;50.060;21.960;2024-02-16T08:01:19;57.38;;;25.25;;
68484;SDS011;55472;50.060;21.960;2024-02-16T08:03:45;52.87;;;22.80;;
68484;SDS011;55472;50.060;21.960;2024-02-16T08:06:12;54.50;;;24.45;;
68484;SDS011;55472;50.060;21.960;2024-02-16T08:08:38;58.63;;;23.40;;
68484;SDS011;55472;50.060;21.960;2024-02-16T08:11:04;50.35;;;22.05;;
68484;SDS011;55472;50.060;21.960;2024-02-16T08:13:30;53.00;;;22.13;;
68484;SDS011;55472;50.060;21.960;2024-02-16T08:15:56;54.57;;;23.97;;
68484;SDS011;55472;50.060;21.960;2024-02-16T08:18:22;52.47;;;22.73;;
68484;SDS011;55472;50.060;21.960;2024-02-16T08:20:48;53.15;;;23.17;;
68484;SDS011;55472;50.060;21.960;2024-02-16T08:23:15;47.92;;;21.27;;
68484;SDS011;55472;50.060;21.960;2024-02-16T08:25:41;45.73;;;21.40;;
68484;SDS011;55472;50.060;21.960;2024-02-16T08:28:07;44.25;;;20.20;;
68484;SDS011;55472;50.060;21.960;2024-02-16T08:30:34;46.60;;;20.75;;
68484;SDS011;55472;50.060;21.960;2024-02-16T08:33:01;41.85;;;18.13;;
68484;SDS011;55472;50.060;21.960;2024-02-16T08:35:27;39.50;;;18.42;;
68484;SDS011;55472;50.060;21.960;2024-02-16T08:37:54;40.83;;;17.90;;
68484;SDS011;55472;50.060;21.960;2024-02-16T08:40:21;34.80;;;15.43;;
68484;SDS011;55472;50.060;21.960;2024-02-16T08:42:47;30.67;;;13.25;;
68484;SDS011;55472;50.060;21.960;2024-02-16T08:45:13;25.95;;;10.95;;
68484;SDS011;55472;50.060;21.960;2024-02-16T08:47:40;22.75;;;8.52;;
68484;SDS011;55472;50.060;21.960;2024-02-16T08:50:07;21.67;;;8.33;;
68484;SDS011;55472;50.060;21.960;2024-02-16T08:52:34;20.35;;;9.15;;
68484;SDS011;55472;50.060;21.960;2024-02-16T08:55:00;21.80;;;9.90;;
68484;SDS011;55472;50.060;21.960;2024-02-16T08:57:26;21.20;;;9.18;;
68484;SDS011;55472;50.060;21.960;2024-02-16T08:59:52;18.20;;;8.30;;
68484;SDS011;55472;50.060;21.960;2024-02-16T09:02:19;16.10;;;7.97;;
68484;SDS011;55472;50.060;21.960;2024-02-16T09:04:46;15.65;;;7.72;;
68484;SDS011;55472;50.060;21.960;2024-02-16T09:07:12;17.63;;;7.95;;
68484;SDS011;55472;50.060;21.960;2024-02-16T09:09:38;15.20;;;7.22;;
68484;SDS011;55472;50.060;21.960;2024-02-16T09:12:05;18.45;;;7.10;;
68484;SDS011;55472;50.060;21.960;2024-02-16T09:14:31;15.23;;;7.53;;
68484;SDS011;55472;50.060;21.960;2024-02-16T09:16:57;13.77;;;7.23;;
68484;SDS011;55472;50.060;21.960;2024-02-16T09:19:23;17.10;;;8.75;;
68484;SDS011;55472;50.060;21.960;2024-02-16T09:21:49;18.70;;;9.43;;
68484;SDS011;55472;50.060;21.960;2024-02-16T09:24:16;29.92;;;13.40;;
68484;SDS011;55472;50.060;21.960;2024-02-16T09:26:44;21.52;;;11.73;;
68484;SDS011;55472;50.060;21.960;2024-02-16T09:29:13;19.45;;;9.07;;
68484;SDS011;55472;50.060;21.960;2024-02-16T09:31:43;15.67;;;7.40;;
68484;SDS011;55472;50.060;21.960;2024-02-16T09:34:09;14.65;;;7.82;;
68484;SDS011;55472;50.060;21.960;2024-02-16T09:36:35;17.80;;;9.38;;
68484;SDS011;55472;50.060;21.960;2024-02-16T09:39:02;19.23;;;8.98;;
68484;SDS011;55472;50.060;21.960;2024-02-16T09:41:30;13.73;;;7.15;;
68484;SDS011;55472;50.060;21.960;2024-02-16T09:44:01;15.45;;;7.13;;
68484;SDS011;55472;50.060;21.960;2024-02-16T09:46:31;15.13;;;7.10;;
68484;SDS011;55472;50.060;21.960;2024-02-16T09:49:02;13.67;;;7.17;;
68484;SDS011;55472;50.060;21.960;2024-02-16T09:51:30;13.88;;;7.68;;
68484;SDS011;55472;50.060;21.960;2024-02-16T09:53:56;13.55;;;6.75;;
68484;SDS011;55472;50.060;21.960;2024-02-16T09:56:23;16.33;;;6.75;;
68484;SDS011;55472;50.060;21.960;2024-02-16T09:58:53;17.20;;;8.85;;
68484;SDS011;55472;50.060;21.960;2024-02-16T10:01:21;23.48;;;9.30;;
68484;SDS011;55472;50.060;21.960;2024-02-16T10:03:54;26.23;;;9.60;;
68484;SDS011;55472;50.060;21.960;2024-02-16T10:06:45;15.38;;;7.32;;
68484;SDS011;55472;50.060;21.960;2024-02-16T10:09:22;15.38;;;6.90;;
68484;SDS011;55472;50.060;21.960;2024-02-16T10:11:54;14.20;;;6.80;;
68484;SDS011;55472;50.060;21.960;2024-02-16T10:14:22;13.25;;;6.43;;
68484;SDS011;55472;50.060;21.960;2024-02-16T10:17:03;11.90;;;6.00;;
68484;SDS011;55472;50.060;21.960;2024-02-16T10:19:31;9.57;;;5.20;;
68484;SDS011;55472;50.060;21.960;2024-02-16T10:22:07;12.07;;;5.82;;
68484;SDS011;55472;50.060;21.960;2024-02-16T10:24:38;12.70;;;5.75;;
68484;SDS011;55472;50.060;21.960;2024-02-16T10:27:05;11.80;;;5.82;;
68484;SDS011;55472;50.060;21.960;2024-02-16T10:29:32;11.37;;;6.07;;
68484;SDS011;55472;50.060;21.960;2024-02-16T10:31:59;10.57;;;5.45;;
68484;SDS011;55472;50.060;21.960;2024-02-16T10:34:26;13.70;;;6.25;;
68484;SDS011;55472;50.060;21.960;2024-02-16T10:36:55;13.23;;;6.05;;
68484;SDS011;55472;50.060;21.960;2024-02-16T10:39:22;12.55;;;5.60;;
68484;SDS011;55472;50.060;21.960;2024-02-16T10:41:49;12.70;;;5.00;;
68484;SDS011;55472;50.060;21.960;2024-02-16T10:44:17;13.98;;;5.07;;
68484;SDS011;55472;50.060;21.960;2024-02-16T10:46:43;11.80;;;5.20;;
68484;SDS011;55472;50.060;21.960;2024-02-16T10:49:09;12.30;;;5.80;;
68484;SDS011;55472;50.060;21.960;2024-02-16T10:51:40;13.23;;;5.70;;
68484;SDS011;55472;50.060;21.960;2024-02-16T10:54:12;15.13;;;6.17;;
68484;SDS011;55472;50.060;21.960;2024-02-16T10:56:43;12.40;;;5.70;;
68484;SDS011;55472;50.060;21.960;2024-02-16T10:59:10;11.55;;;5.78;;
68484;SDS011;55472;50.060;21.960;2024-02-16T11:01:37;13.03;;;5.60;;
68484;SDS011;55472;50.060;21.960;2024-02-16T11:04:04;13.85;;;5.72;;
68484;SDS011;55472;50.060;21.960;2024-02-16T11:06:45;10.05;;;5.32;;
68484;SDS011;55472;50.060;21.960;2024-02-16T11:09:25;10.55;;;5.10;;
68484;SDS011;55472;50.060;21.960;2024-02-16T11:11:58;8.90;;;4.50;;
68484;SDS011;55472;50.060;21.960;2024-02-16T11:14:36;12.37;;;5.00;;
68484;SDS011;55472;50.060;21.960;2024-02-16T11:19:35;14.00;;;5.70;;
68484;SDS011;55472;50.060;21.960;2024-02-16T11:22:06;12.40;;;6.03;;
68484;SDS011;55472;50.060;21.960;2024-02-16T11:24:34;17.17;;;6.45;;
68484;SDS011;55472;50.060;21.960;2024-02-16T11:27:02;13.70;;;6.03;;
68484;SDS011;55472;50.060;21.960;2024-02-16T11:29:33;18.27;;;8.40;;
68484;SDS011;55472;50.060;21.960;2024-02-16T11:32:01;12.57;;;6.63;;
68484;SDS011;55472;50.060;21.960;2024-02-16T11:34:28;14.13;;;6.20;;
68484;SDS011;55472;50.060;21.960;2024-02-16T11:36:56;11.40;;;5.20;;
68484;SDS011;55472;50.060;21.960;2024-02-16T11:39:26;15.07;;;4.70;;
68484;SDS011;55472;50.060;21.960;2024-02-16T11:41:59;12.30;;;5.65;;
68484;SDS011;55472;50.060;21.960;2024-02-16T11:44:30;13.23;;;5.80;;
68484;SDS011;55472;50.060;21.960;2024-02-16T11:47:00;11.65;;;5.53;;
68484;SDS011;55472;50.060;21.960;2024-02-16T11:49:28;11.20;;;5.07;;
68484;SDS011;55472;50.060;21.960;2024-02-16T11:51:56;10.67;;;4.77;;
68484;SDS011;55472;50.060;21.960;2024-02-16T11:54:24;10.88;;;5.13;;
68484;SDS011;55472;50.060;21.960;2024-02-16T11:56:51;11.93;;;5.50;;
68484;SDS011;55472;50.060;21.960;2024-02-16T11:59:18;8.82;;;4.15;;
68484;SDS011;55472;50.060;21.960;2024-02-16T12:01:51;9.10;;;4.75;;
68484;SDS011;55472;50.060;21.960;2024-02-16T12:04:24;10.27;;;4.43;;
68484;SDS011;55472;50.060;21.960;2024-02-16T12:06:53;10.60;;;4.60;;
68484;SDS011;55472;50.060;21.960;2024-02-16T12:09:27;10.23;;;4.50;;
68484;SDS011;55472;50.060;21.960;2024-02-16T12:11:54;11.43;;;4.78;;
68484;SDS011;55472;50.060;21.960;2024-02-16T12:14:21;13.25;;;5.43;;
68484;SDS011;55472;50.060;21.960;2024-02-16T12:16:49;13.13;;;5.13;;
68484;SDS011;55472;50.060;21.960;2024-02-16T12:19:21;11.30;;;5.03;;
68484;SDS011;55472;50.060;21.960;2024-02-16T12:21:52;11.60;;;4.95;;
68484;SDS011;55472;50.060;21.960;2024-02-16T12:24:20;9.85;;;5.20;;
68484;SDS011;55472;50.060;21.960;2024-02-16T12:26:47;9.80;;;4.38;;
68484;SDS011;55472;50.060;21.960;2024-02-16T12:29:13;9.97;;;4.10;;
68484;SDS011;55472;50.060;21.960;2024-02-16T12:31:40;9.90;;;4.70;;
68484;SDS011;55472;50.060;21.960;2024-02-16T12:34:08;10.35;;;4.60;;
68484;SDS011;55472;50.060;21.960;2024-02-16T12:36:35;8.75;;;4.30;;
68484;SDS011;55472;50.060;21.960;2024-02-16T12:39:06;9.48;;;4.25;;
68484;SDS011;55472;50.060;21.960;2024-02-16T12:41:34;8.00;;;4.07;;
68484;SDS011;55472;50.060;21.960;2024-02-16T12:44:03;10.05;;;4.10;;
68484;SDS011;55472;50.060;21.960;2024-02-16T12:46:33;9.95;;;4.47;;
68484;SDS011;55472;50.060;21.960;2024-02-16T12:48:59;9.60;;;4.28;;
68484;SDS011;55472;50.060;21.960;2024-02-16T12:51:26;10.38;;;4.70;;
68484;SDS011;55472;50.060;21.960;2024-02-16T12:53:52;10.37;;;4.20;;
68484;SDS011;55472;50.060;21.960;2024-02-16T12:56:18;8.25;;;4.15;;
68484;SDS011;55472;50.060;21.960;2024-02-16T12:58:46;11.18;;;4.10;;
68484;SDS011;55472;50.060;21.960;2024-02-16T13:01:13;7.93;;;4.00;;
68484;SDS011;55472;50.060;21.960;2024-02-16T13:03:39;8.40;;;3.95;;
68484;SDS011;55472;50.060;21.960;2024-02-16T13:06:05;10.37;;;4.20;;
68484;SDS011;55472;50.060;21.960;2024-02-16T13:08:32;10.38;;;4.75;;
68484;SDS011;55472;50.060;21.960;2024-02-16T13:10:58;9.23;;;4.13;;
68484;SDS011;55472;50.060;21.960;2024-02-16T13:13:24;10.85;;;3.97;;
68484;SDS011;55472;50.060;21.960;2024-02-16T13:15:50;9.75;;;3.58;;
68484;SDS011;55472;50.060;21.960;2024-02-16T13:18:17;9.63;;;4.40;;
68484;SDS011;55472;50.060;21.960;2024-02-16T13:20:43;11.85;;;4.63;;
68484;SDS011;55472;50.060;21.960;2024-02-16T13:23:09;10.00;;;4.28;;
68484;SDS011;55472;50.060;21.960;2024-02-16T13:25:36;11.30;;;3.80;;
68484;SDS011;55472;50.060;21.960;2024-02-16T13:28:02;7.93;;;3.50;;
68484;SDS011;55472;50.060;21.960;2024-02-16T13:30:29;10.70;;;3.70;;
68484;SDS011;55472;50.060;21.960;2024-02-16T13:32:55;8.82;;;4.07;;
68484;SDS011;55472;50.060;21.960;2024-02-16T13:35:21;14.43;;;5.38;;
68484;SDS011;55472;50.060;21.960;2024-02-16T13:37:47;11.85;;;4.50;;
68484;SDS011;55472;50.060;21.960;2024-02-16T13:40:14;13.98;;;5.10;;
68484;SDS011;55472;50.060;21.960;2024-02-16T13:42:40;10.90;;;4.20;;
68484;SDS011;55472;50.060;21.960;2024-02-16T13:45:07;13.35;;;5.00;;
68484;SDS011;55472;50.060;21.960;2024-02-16T13:47:35;10.38;;;3.80;;
68484;SDS011;55472;50.060;21.960;2024-02-16T13:50:01;8.32;;;3.47;;
68484;SDS011;55472;50.060;21.960;2024-02-16T13:52:27;9.70;;;3.70;;
68484;SDS011;55472;50.060;21.960;2024-02-16T13:54:54;8.23;;;3.40;;
68484;SDS011;55472;50.060;21.960;2024-02-16T13:57:20;9.43;;;4.00;;
68484;SDS011;55472;50.060;21.960;2024-02-16T13:59:46;7.88;;;3.65;;
68484;SDS011;55472;50.060;21.960;2024-02-16T14:02:12;11.77;;;4.28;;
68484;SDS011;55472;50.060;21.960;2024-02-16T14:04:39;8.67;;;3.53;;
68484;SDS011;55472;50.060;21.960;2024-02-16T14:07:06;7.85;;;3.78;;
68484;SDS011;55472;50.060;21.960;2024-02-16T14:09:32;9.68;;;4.15;;
68484;SDS011;55472;50.060;21.960;2024-02-16T14:11:58;8.95;;;3.88;;
68484;SDS011;55472;50.060;21.960;2024-02-16T14:14:25;9.82;;;4.13;;
68484;SDS011;55472;50.060;21.960;2024-02-16T14:16:51;11.60;;;4.00;;